sensor_id;sensor_type;location;lat;lon;timestamp;pressure;altitude;pressure_sealevel;temperature;humidity
50065;BME280;35951;47.848;-122.338;2022-07-29T00:00:13;101040.87;;;24.22;100.00
50065;BME280;35951;47.848;-122.338;2022-07-29T00:02:40;101040.59;;;24.18;100.00
50065;BME280;35951;47.848;-122.338;2022-07-29T00:05:10;101046.02;;;24.14;100.00
50065;BME280;35951;47.848;-122.338;2022-07-29T00:07:39;101052.38;;;24.10;100.00
50065;BME280;35951;47.848;-122.338;2022-07-29T00:10:06;101055.14;;;24.07;100.00
50065;BME280;35951;47.848;-122.338;2022-07-29T00:12:34;101045.06;;;24.05;100.00
50065;BME280;35951;47.848;-122.338;2022-07-29T00:15:02;101042.05;;;24.03;100.00
50065;BME280;35951;47.848;-122.338;2022-07-29T00:17:31;101032.02;;;23.99;100.00
50065;BME280;35951;47.848;-122.338;2022-07-29T00:19:59;101037.73;;;24.00;100.00
50065;BME280;35951;47.848;-122.338;2022-07-29T00:22:27;101040.72;;;24.03;100.00
50065;BME280;35951;47.848;-122.338;2022-07-29T00:24:54;101028.39;;;24.02;100.00
50065;BME280;35951;47.848;-122.338;2022-07-29T00:27:21;101028.25;;;24.05;100.00
50065;BME280;35951;47.848;-122.338;2022-07-29T00:30:07;101022.45;;;24.07;100.00
50065;BME280;35951;47.848;-122.338;2022-07-29T00:32:38;101030.27;;;24.10;100.00
50065;BME280;35951;47.848;-122.338;2022-07-29T00:35:05;101025.38;;;24.11;100.00
50065;BME280;35951;47.848;-122.338;2022-07-29T00:37:51;101028.41;;;24.12;100.00
50065;BME280;35951;47.848;-122.338;2022-07-29T00:40:18;101023.09;;;24.12;100.00
50065;BME280;35951;47.848;-122.338;2022-07-29T00:42:45;101018.68;;;24.12;100.00
50065;BME280;35951;47.848;-122.338;2022-07-29T00:45:14;101021.77;;;24.12;100.00
50065;BME280;35951;47.848;-122.338;2022-07-29T00:47:41;101019.59;;;24.11;100.00
50065;BME280;35951;47.848;-122.338;2022-07-29T00:50:09;101019.53;;;24.13;100.00
50065;BME280;35951;47.848;-122.338;2022-07-29T00:52:37;101009.45;;;24.11;100.00
50065;BME280;35951;47.848;-122.338;2022-07-29T00:55:06;101008.59;;;24.10;100.00
50065;BME280;35951;47.848;-122.338;2022-07-29T00:57:35;101007.27;;;24.10;100.00
50065;BME280;35951;47.848;-122.338;2022-07-29T01:00:05;100998.83;;;24.11;100.00
50065;BME280;35951;47.848;-122.338;2022-07-29T01:02:34;100997.03;;;24.11;100.00
50065;BME280;35951;47.848;-122.338;2022-07-29T01:05:02;100996.18;;;24.11;100.00
50065;BME280;35951;47.848;-122.338;2022-07-29T01:07:34;100995.38;;;24.09;100.00
50065;BME280;35951;47.848;-122.338;2022-07-29T01:10:03;100997.15;;;24.08;100.00
50065;BME280;35951;47.848;-122.338;2022-07-29T01:12:31;100995.08;;;24.05;100.00
50065;BME280;35951;47.848;-122.338;2022-07-29T01:15:00;100990.36;;;24.01;100.00
50065;BME280;35951;47.848;-122.338;2022-07-29T01:17:29;100993.53;;;23.99;100.00
50065;BME280;35951;47.848;-122.338;2022-07-29T01:22:53;100990.34;;;23.91;100.00
50065;BME280;35951;47.848;-122.338;2022-07-29T01:31:16;100991.56;;;23.82;100.00
50065;BME280;35951;47.848;-122.338;2022-07-29T01:33:45;100983.94;;;23.73;100.00
50065;BME280;35951;47.848;-122.338;2022-07-29T01:36:22;100992.41;;;23.71;100.00
50065;BME280;35951;47.848;-122.338;2022-07-29T01:38:47;100994.31;;;23.67;100.00
50065;BME280;35951;47.848;-122.338;2022-07-29T01:41:16;100992.19;;;23.65;100.00
50065;BME280;35951;47.848;-122.338;2022-07-29T01:43:48;100991.39;;;23.63;100.00
50065;BME280;35951;47.848;-122.338;2022-07-29T01:46:19;100985.34;;;23.60;100.00
50065;BME280;35951;47.848;-122.338;2022-07-29T01:48:52;100982.84;;;23.55;100.00
50065;BME280;35951;47.848;-122.338;2022-07-29T01:51:29;100979.45;;;23.51;100.00
50065;BME280;35951;47.848;-122.338;2022-07-29T01:54:04;100986.59;;;23.49;100.00
50065;BME280;35951;47.848;-122.338;2022-07-29T01:56:31;100991.48;;;23.48;100.00
50065;BME280;35951;47.848;-122.338;2022-07-29T01:58:59;100989.87;;;23.44;100.00
50065;BME280;35951;47.848;-122.338;2022-07-29T02:01:28;100983.49;;;23.38;100.00
50065;BME280;35951;47.848;-122.338;2022-07-29T02:03:56;100981.63;;;23.28;100.00
50065;BME280;35951;47.848;-122.338;2022-07-29T02:06:24;100987.69;;;23.20;100.00
50065;BME280;35951;47.848;-122.338;2022-07-29T02:08:52;100991.19;;;23.21;100.00
50065;BME280;35951;47.848;-122.338;2022-07-29T02:11:20;100977.14;;;23.18;100.00
50065;BME280;35951;47.848;-122.338;2022-07-29T02:13:47;100972.30;;;23.18;100.00
50065;BME280;35951;47.848;-122.338;2022-07-29T02:16:15;100962.85;;;23.11;100.00
50065;BME280;35951;47.848;-122.338;2022-07-29T02:18:45;100962.63;;;23.04;100.00
50065;BME280;35951;47.848;-122.338;2022-07-29T02:21:15;100965.28;;;23.04;100.00
50065;BME280;35951;47.848;-122.338;2022-07-29T02:23:45;100965.22;;;23.07;100.00
50065;BME280;35951;47.848;-122.338;2022-07-29T02:26:13;100967.30;;;23.10;100.00
50065;BME280;35951;47.848;-122.338;2022-07-29T02:28:41;100965.60;;;23.08;100.00
50065;BME280;35951;47.848;-122.338;2022-07-29T02:31:08;100966.92;;;23.08;100.00
50065;BME280;35951;47.848;-122.338;2022-07-29T02:33:36;100964.23;;;23.09;100.00
50065;BME280;35951;47.848;-122.338;2022-07-29T02:36:04;100953.11;;;23.11;100.00
50065;BME280;35951;47.848;-122.338;2022-07-29T02:38:32;100949.47;;;23.14;100.00
50065;BME280;35951;47.848;-122.338;2022-07-29T02:42:05;100953.28;;;23.18;100.00
50065;BME280;35951;47.848;-122.338;2022-07-29T02:43:54;100954.95;;;23.21;100.00
50065;BME280;35951;47.848;-122.338;2022-07-29T02:46:25;100948.73;;;23.22;100.00
50065;BME280;35951;47.848;-122.338;2022-07-29T02:52:04;100949.26;;;23.20;100.00
50065;BME280;35951;47.848;-122.338;2022-07-29T02:54:45;100949.41;;;23.15;100.00
50065;BME280;35951;47.848;-122.338;2022-07-29T02:56:59;100948.33;;;23.09;100.00
50065;BME280;35951;47.848;-122.338;2022-07-29T02:59:28;100961.11;;;23.10;100.00
50065;BME280;35951;47.848;-122.338;2022-07-29T03:01:57;100958.45;;;23.10;100.00
50065;BME280;35951;47.848;-122.338;2022-07-29T03:04:25;100964.75;;;23.07;100.00
50065;BME280;35951;47.848;-122.338;2022-07-29T03:06:54;100969.63;;;23.06;100.00
50065;BME280;35951;47.848;-122.338;2022-07-29T03:09:23;100972.81;;;23.03;100.00
50065;BME280;35951;47.848;-122.338;2022-07-29T03:11:52;100973.43;;;22.97;100.00
50065;BME280;35951;47.848;-122.338;2022-07-29T03:14:19;100977.06;;;22.95;100.00
50065;BME280;35951;47.848;-122.338;2022-07-29T03:16:48;100972.86;;;22.89;100.00
50065;BME280;35951;47.848;-122.338;2022-07-29T03:19:16;100971.68;;;22.85;100.00
50065;BME280;35951;47.848;-122.338;2022-07-29T03:21:44;100972.81;;;22.77;100.00
50065;BME280;35951;47.848;-122.338;2022-07-29T03:24:23;100973.14;;;22.68;100.00
50065;BME280;35951;47.848;-122.338;2022-07-29T03:26:52;100977.84;;;22.60;100.00
50065;BME280;35951;47.848;-122.338;2022-07-29T03:29:20;100976.32;;;22.53;100.00
50065;BME280;35951;47.848;-122.338;2022-07-29T03:31:47;100980.44;;;22.48;100.00
50065;BME280;35951;47.848;-122.338;2022-07-29T03:34:14;100987.22;;;22.43;100.00
50065;BME280;35951;47.848;-122.338;2022-07-29T03:36:41;100985.19;;;22.38;100.00
50065;BME280;35951;47.848;-122.338;2022-07-29T03:39:08;100987.53;;;22.34;100.00
50065;BME280;35951;47.848;-122.338;2022-07-29T03:41:36;100977.55;;;22.29;100.00
50065;BME280;35951;47.848;-122.338;2022-07-29T03:44:05;100974.98;;;22.26;100.00
50065;BME280;35951;47.848;-122.338;2022-07-29T03:46:32;100976.80;;;22.24;100.00
50065;BME280;35951;47.848;-122.338;2022-07-29T03:49:01;100978.67;;;22.20;100.00
50065;BME280;35951;47.848;-122.338;2022-07-29T03:51:30;100978.33;;;22.18;100.00
50065;BME280;35951;47.848;-122.338;2022-07-29T03:53:57;100972.27;;;22.14;100.00
50065;BME280;35951;47.848;-122.338;2022-07-29T03:56:25;100978.97;;;22.11;100.00
50065;BME280;35951;47.848;-122.338;2022-07-29T03:58:52;100974.23;;;22.08;100.00
50065;BME280;35951;47.848;-122.338;2022-07-29T04:01:20;100975.77;;;22.01;100.00
50065;BME280;35951;47.848;-122.338;2022-07-29T04:03:48;100979.01;;;21.96;100.00
50065;BME280;35951;47.848;-122.338;2022-07-29T04:06:15;100977.86;;;21.90;100.00
50065;BME280;35951;47.848;-122.338;2022-07-29T04:08:42;100976.70;;;21.85;100.00
50065;BME280;35951;47.848;-122.338;2022-07-29T04:11:09;100974.30;;;21.78;100.00
50065;BME280;35951;47.848;-122.338;2022-07-29T04:13:37;100979.36;;;21.71;100.00
50065;BME280;35951;47.848;-122.338;2022-07-29T04:16:04;100983.45;;;21.66;100.00
50065;BME280;35951;47.848;-122.338;2022-07-29T04:18:31;100983.56;;;21.63;100.00
50065;BME280;35951;47.848;-122.338;2022-07-29T04:20:59;100980.50;;;21.62;100.00
50065;BME280;35951;47.848;-122.338;2022-07-29T04:23:29;100980.54;;;21.60;100.00
50065;BME280;35951;47.848;-122.338;2022-07-29T04:25:59;100979.72;;;21.58;100.00
50065;BME280;35951;47.848;-122.338;2022-07-29T04:28:27;100978.59;;;21.52;100.00
50065;BME280;35951;47.848;-122.338;2022-07-29T04:30:55;100989.28;;;21.47;100.00
50065;BME280;35951;47.848;-122.338;2022-07-29T04:33:22;100991.58;;;21.43;100.00
50065;BME280;35951;47.848;-122.338;2022-07-29T04:35:49;100989.87;;;21.41;100.00
50065;BME280;35951;47.848;-122.338;2022-07-29T04:38:16;100979.42;;;21.38;100.00
50065;BME280;35951;47.848;-122.338;2022-07-29T04:40:43;100977.28;;;21.36;100.00
50065;BME280;35951;47.848;-122.338;2022-07-29T04:43:10;100980.46;;;21.32;100.00
50065;BME280;35951;47.848;-122.338;2022-07-29T04:45:37;100986.33;;;21.27;100.00
50065;BME280;35951;47.848;-122.338;2022-07-29T04:48:04;100984.58;;;21.26;100.00
50065;BME280;35951;47.848;-122.338;2022-07-29T04:50:31;100981.94;;;21.26;100.00
50065;BME280;35951;47.848;-122.338;2022-07-29T04:52:58;100981.90;;;21.27;100.00
50065;BME280;35951;47.848;-122.338;2022-07-29T04:55:25;100984.54;;;21.27;100.00
50065;BME280;35951;47.848;-122.338;2022-07-29T04:57:52;100980.08;;;21.29;100.00
50065;BME280;35951;47.848;-122.338;2022-07-29T05:00:19;100981.86;;;21.29;100.00
50065;BME280;35951;47.848;-122.338;2022-07-29T05:02:48;100984.47;;;21.31;100.00
50065;BME280;35951;47.848;-122.338;2022-07-29T05:05:16;100983.58;;;21.30;100.00
50065;BME280;35951;47.848;-122.338;2022-07-29T05:07:43;100988.93;;;21.28;100.00
50065;BME280;35951;47.848;-122.338;2022-07-29T05:10:11;100982.36;;;21.27;100.00
50065;BME280;35951;47.848;-122.338;2022-07-29T05:12:38;100988.08;;;21.26;100.00
50065;BME280;35951;47.848;-122.338;2022-07-29T05:15:05;100981.98;;;21.24;100.00
50065;BME280;35951;47.848;-122.338;2022-07-29T05:17:33;100991.69;;;21.24;100.00
50065;BME280;35951;47.848;-122.338;2022-07-29T05:20:00;100988.69;;;21.21;100.00
50065;BME280;35951;47.848;-122.338;2022-07-29T05:22:27;100992.69;;;21.20;100.00
50065;BME280;35951;47.848;-122.338;2022-07-29T05:24:54;100996.73;;;21.17;100.00
50065;BME280;35951;47.848;-122.338;2022-07-29T05:27:22;101000.69;;;21.17;100.00
50065;BME280;35951;47.848;-122.338;2022-07-29T05:29:49;101002.05;;;21.15;100.00
50065;BME280;35951;47.848;-122.338;2022-07-29T05:32:17;100995.98;;;21.12;100.00
50065;BME280;35951;47.848;-122.338;2022-07-29T05:34:44;100997.41;;;21.08;100.00
50065;BME280;35951;47.848;-122.338;2022-07-29T05:37:11;100997.41;;;21.08;100.00
50065;BME280;35951;47.848;-122.338;2022-07-29T05:39:39;100999.63;;;21.07;100.00
50065;BME280;35951;47.848;-122.338;2022-07-29T05:42:09;100997.84;;;21.08;100.00
50065;BME280;35951;47.848;-122.338;2022-07-29T05:44:39;100995.70;;;21.06;100.00
50065;BME280;35951;47.848;-122.338;2022-07-29T05:47:07;100997.52;;;21.04;100.00
50065;BME280;35951;47.848;-122.338;2022-07-29T05:49:34;100995.81;;;21.03;100.00
50065;BME280;35951;47.848;-122.338;2022-07-29T05:52:01;101000.23;;;21.01;100.00
50065;BME280;35951;47.848;-122.338;2022-07-29T05:54:27;100995.06;;;20.98;100.00
50065;BME280;35951;47.848;-122.338;2022-07-29T05:56:54;100998.27;;;20.93;100.00
50065;BME280;35951;47.848;-122.338;2022-07-29T05:59:21;101004.09;;;20.89;100.00
50065;BME280;35951;47.848;-122.338;2022-07-29T06:01:48;101003.27;;;20.87;100.00
50065;BME280;35951;47.848;-122.338;2022-07-29T06:04:15;101012.55;;;20.85;100.00
50065;BME280;35951;47.848;-122.338;2022-07-29T06:06:42;101009.44;;;20.86;100.00
50065;BME280;35951;47.848;-122.338;2022-07-29T06:09:09;101007.23;;;20.87;100.00
50065;BME280;35951;47.848;-122.338;2022-07-29T06:11:36;101014.27;;;20.86;100.00
50065;BME280;35951;47.848;-122.338;2022-07-29T06:14:03;101016.90;;;20.86;100.00
50065;BME280;35951;47.848;-122.338;2022-07-29T06:16:30;101015.19;;;20.85;100.00
50065;BME280;35951;47.848;-122.338;2022-07-29T06:18:58;101013.87;;;20.85;100.00
50065;BME280;35951;47.848;-122.338;2022-07-29T06:21:30;101013.97;;;20.81;100.00
50065;BME280;35951;47.848;-122.338;2022-07-29T06:23:54;101016.67;;;20.79;100.00
50065;BME280;35951;47.848;-122.338;2022-07-29T06:26:22;101018.92;;;20.77;100.00
50065;BME280;35951;47.848;-122.338;2022-07-29T06:28:49;101027.70;;;20.77;100.00
50065;BME280;35951;47.848;-122.338;2022-07-29T06:31:17;101029.95;;;20.76;100.00
50065;BME280;35951;47.848;-122.338;2022-07-29T06:33:44;101019.42;;;20.75;100.00
50065;BME280;35951;47.848;-122.338;2022-07-29T06:36:12;101014.61;;;20.74;100.00
50065;BME280;35951;47.848;-122.338;2022-07-29T06:38:39;101013.39;;;20.69;100.00
50065;BME280;35951;47.848;-122.338;2022-07-29T06:41:08;101012.13;;;20.66;100.00
50065;BME280;35951;47.848;-122.338;2022-07-29T06:43:37;101012.13;;;20.66;100.00
50065;BME280;35951;47.848;-122.338;2022-07-29T06:46:07;101006.86;;;20.66;100.00
50065;BME280;35951;47.848;-122.338;2022-07-29T06:48:36;101015.70;;;20.65;100.00
50065;BME280;35951;47.848;-122.338;2022-07-29T06:51:04;101012.63;;;20.64;100.00
50065;BME280;35951;47.848;-122.338;2022-07-29T06:53:32;101016.23;;;20.62;100.00
50065;BME280;35951;47.848;-122.338;2022-07-29T06:56:00;101024.15;;;20.60;100.00
50065;BME280;35951;47.848;-122.338;2022-07-29T06:58:28;101023.81;;;20.56;100.00
50065;BME280;35951;47.848;-122.338;2022-07-29T07:00:56;101014.68;;;20.51;100.00
50065;BME280;35951;47.848;-122.338;2022-07-29T07:03:24;101019.20;;;20.46;100.00
50065;BME280;35951;47.848;-122.338;2022-07-29T07:05:52;101011.77;;;20.44;100.00
50065;BME280;35951;47.848;-122.338;2022-07-29T07:08:19;101025.49;;;20.41;100.00
50065;BME280;35951;47.848;-122.338;2022-07-29T07:10:47;101024.23;;;20.39;100.00
50065;BME280;35951;47.848;-122.338;2022-07-29T07:13:14;101011.08;;;20.38;100.00
50065;BME280;35951;47.848;-122.338;2022-07-29T07:15:43;101013.84;;;20.31;100.00
50065;BME280;35951;47.848;-122.338;2022-07-29T07:18:10;101010.88;;;20.27;100.00
50065;BME280;35951;47.848;-122.338;2022-07-29T07:20:37;101017.93;;;20.27;100.00
50065;BME280;35951;47.848;-122.338;2022-07-29T07:23:04;101021.89;;;20.27;100.00
50065;BME280;35951;47.848;-122.338;2022-07-29T07:25:31;101014.00;;;20.25;100.00
50065;BME280;35951;47.848;-122.338;2022-07-29T07:27:59;101018.48;;;20.22;100.00
50065;BME280;35951;47.848;-122.338;2022-07-29T07:30:27;101017.22;;;20.19;100.00
50065;BME280;35951;47.848;-122.338;2022-07-29T07:32:55;101019.50;;;20.16;100.00
50065;BME280;35951;47.848;-122.338;2022-07-29T07:35:22;101029.25;;;20.12;100.00
50065;BME280;35951;47.848;-122.338;2022-07-29T07:37:50;101032.00;;;20.06;100.00
50065;BME280;35951;47.848;-122.338;2022-07-29T07:40:17;101026.05;;;19.98;100.00
50065;BME280;35951;47.848;-122.338;2022-07-29T07:42:44;101023.13;;;19.91;100.00
50065;BME280;35951;47.848;-122.338;2022-07-29T07:45:12;101022.33;;;19.87;100.00
50065;BME280;35951;47.848;-122.338;2022-07-29T07:47:39;101018.98;;;19.79;100.00
50065;BME280;35951;47.848;-122.338;2022-07-29T07:50:07;101021.33;;;19.72;100.00
50065;BME280;35951;47.848;-122.338;2022-07-29T07:52:37;101019.27;;;19.65;100.00
50065;BME280;35951;47.848;-122.338;2022-07-29T07:55:05;101024.99;;;19.65;100.00
50065;BME280;35951;47.848;-122.338;2022-07-29T07:57:33;101024.61;;;19.61;100.00
50065;BME280;35951;47.848;-122.338;2022-07-29T08:00:01;101026.93;;;19.55;100.00
50065;BME280;35951;47.848;-122.338;2022-07-29T08:02:28;101020.13;;;19.45;100.00
50065;BME280;35951;47.848;-122.338;2022-07-29T08:04:56;101018.52;;;19.37;100.00
50065;BME280;35951;47.848;-122.338;2022-07-29T08:07:25;101017.70;;;19.34;100.00
50065;BME280;35951;47.848;-122.338;2022-07-29T08:09:52;101019.08;;;19.31;100.00
50065;BME280;35951;47.848;-122.338;2022-07-29T08:12:20;101013.83;;;19.29;100.00
50065;BME280;35951;47.848;-122.338;2022-07-29T08:14:47;101015.17;;;19.28;100.00
50065;BME280;35951;47.848;-122.338;2022-07-29T08:17:14;101018.77;;;19.24;100.00
50065;BME280;35951;47.848;-122.338;2022-07-29T08:19:42;101023.25;;;19.18;100.00
50065;BME280;35951;47.848;-122.338;2022-07-29T08:22:11;101020.73;;;19.14;100.00
50065;BME280;35951;47.848;-122.338;2022-07-29T08:24:38;101021.16;;;19.13;100.00
50065;BME280;35951;47.848;-122.338;2022-07-29T08:27:09;101010.22;;;19.12;100.00
50065;BME280;35951;47.848;-122.338;2022-07-29T08:29:36;101008.45;;;19.13;100.00
50065;BME280;35951;47.848;-122.338;2022-07-29T08:32:04;101010.22;;;19.12;100.00
50065;BME280;35951;47.848;-122.338;2022-07-29T08:34:31;101027.25;;;19.15;100.00
50065;BME280;35951;47.848;-122.338;2022-07-29T08:36:58;101026.39;;;19.15;100.00
50065;BME280;35951;47.848;-122.338;2022-07-29T08:39:25;101035.61;;;19.15;100.00
50065;BME280;35951;47.848;-122.338;2022-07-29T08:41:52;101033.46;;;19.13;100.00
50065;BME280;35951;47.848;-122.338;2022-07-29T08:44:20;101028.22;;;19.11;100.00
50065;BME280;35951;47.848;-122.338;2022-07-29T08:46:48;101032.65;;;19.09;100.00
50065;BME280;35951;47.848;-122.338;2022-07-29T08:49:16;101024.39;;;19.05;100.00
50065;BME280;35951;47.848;-122.338;2022-07-29T08:51:44;101025.27;;;19.04;100.00
50065;BME280;35951;47.848;-122.338;2022-07-29T08:54:12;101027.94;;;19.03;100.00
50065;BME280;35951;47.848;-122.338;2022-07-29T08:56:42;101034.16;;;18.98;100.00
50065;BME280;35951;47.848;-122.338;2022-07-29T08:59:09;101037.30;;;18.95;100.00
50065;BME280;35951;47.848;-122.338;2022-07-29T09:01:37;101040.42;;;18.91;100.00
50065;BME280;35951;47.848;-122.338;2022-07-29T09:04:05;101034.34;;;18.88;100.00
50065;BME280;35951;47.848;-122.338;2022-07-29T09:06:36;101028.72;;;18.84;100.00
50065;BME280;35951;47.848;-122.338;2022-07-29T09:09:07;101023.48;;;18.82;100.00
50065;BME280;35951;47.848;-122.338;2022-07-29T09:11:35;101016.05;;;18.78;100.00
50065;BME280;35951;47.848;-122.338;2022-07-29T09:14:02;101022.66;;;18.77;100.00
50065;BME280;35951;47.848;-122.338;2022-07-29T09:17:03;101024.91;;;18.74;100.00
50065;BME280;35951;47.848;-122.338;2022-07-29T09:19:25;101028.41;;;18.73;100.00
50065;BME280;35951;47.848;-122.338;2022-07-29T09:21:51;101033.30;;;18.71;100.00
50065;BME280;35951;47.848;-122.338;2022-07-29T09:24:25;101035.56;;;18.67;100.00
50065;BME280;35951;47.848;-122.338;2022-07-29T09:27:10;101030.78;;;18.65;100.00
50065;BME280;35951;47.848;-122.338;2022-07-29T09:29:39;101035.13;;;18.66;100.00
50065;BME280;35951;47.848;-122.338;2022-07-29T09:32:07;101033.91;;;18.61;100.00
50065;BME280;35951;47.848;-122.338;2022-07-29T09:34:36;101034.83;;;18.57;100.00
50065;BME280;35951;47.848;-122.338;2022-07-29T09:37:03;101037.97;;;18.52;100.00
50065;BME280;35951;47.848;-122.338;2022-07-29T09:39:31;101038.45;;;18.50;100.00
50065;BME280;35951;47.848;-122.338;2022-07-29T09:42:01;101036.27;;;18.49;100.00
50065;BME280;35951;47.848;-122.338;2022-07-29T09:44:42;101032.33;;;18.49;100.00
50065;BME280;35951;47.848;-122.338;2022-07-29T09:47:11;101031.47;;;18.49;100.00
50065;BME280;35951;47.848;-122.338;2022-07-29T09:49:52;101034.63;;;18.42;100.00
50065;BME280;35951;47.848;-122.338;2022-07-29T09:52:26;101036.45;;;18.37;100.00
50065;BME280;35951;47.848;-122.338;2022-07-29T09:54:53;101036.95;;;18.33;100.00
50065;BME280;35951;47.848;-122.338;2022-07-29T09:57:34;101039.21;;;18.29;100.00
50065;BME280;35951;47.848;-122.338;2022-07-29T10:02:35;101049.28;;;18.30;100.00
50065;BME280;35951;47.848;-122.338;2022-07-29T10:05:04;101043.55;;;18.32;100.00
50065;BME280;35951;47.848;-122.338;2022-07-29T10:07:49;101042.65;;;18.34;100.00
50065;BME280;35951;47.848;-122.338;2022-07-29T10:15:27;101052.86;;;18.26;100.00
50065;BME280;35951;47.848;-122.338;2022-07-29T10:17:56;101049.84;;;18.23;100.00
50065;BME280;35951;47.848;-122.338;2022-07-29T10:20:23;101051.17;;;18.21;100.00
50065;BME280;35951;47.848;-122.338;2022-07-29T10:22:52;101052.97;;;18.18;100.00
50065;BME280;35951;47.848;-122.338;2022-07-29T10:25:19;101048.19;;;18.16;100.00
50065;BME280;35951;47.848;-122.338;2022-07-29T10:27:48;101046.03;;;18.14;100.00
50065;BME280;35951;47.848;-122.338;2022-07-29T10:30:17;101042.94;;;18.14;100.00
50065;BME280;35951;47.848;-122.338;2022-07-29T10:33:08;101041.66;;;18.11;100.00
50065;BME280;35951;47.848;-122.338;2022-07-29T10:41:12;101052.30;;;18.03;100.00
50065;BME280;35951;47.848;-122.338;2022-07-29T10:43:58;101043.95;;;18.04;100.00
50065;BME280;35951;47.848;-122.338;2022-07-29T10:46:34;101043.53;;;18.05;100.00
50065;BME280;35951;47.848;-122.338;2022-07-29T10:54:38;101050.13;;;18.01;100.00
50065;BME280;35951;47.848;-122.338;2022-07-29T10:59:46;101042.78;;;17.93;100.00
50065;BME280;35951;47.848;-122.338;2022-07-29T11:05:03;101054.22;;;17.91;100.00
50065;BME280;35951;47.848;-122.338;2022-07-29T11:07:32;101056.39;;;17.91;100.00
50065;BME280;35951;47.848;-122.338;2022-07-29T11:12:45;101062.59;;;17.87;100.00
50065;BME280;35951;47.848;-122.338;2022-07-29T11:15:14;101059.52;;;17.86;100.00
50065;BME280;35951;47.848;-122.338;2022-07-29T11:31:40;101070.08;;;17.81;100.00
50065;BME280;35951;47.848;-122.338;2022-07-29T11:39:36;101076.30;;;17.73;100.00
50065;BME280;35951;47.848;-122.338;2022-07-29T11:47:29;101092.58;;;17.66;100.00
50065;BME280;35951;47.848;-122.338;2022-07-29T11:49:57;101090.00;;;17.64;100.00
50065;BME280;35951;47.848;-122.338;2022-07-29T11:52:42;101084.29;;;17.65;100.00
50065;BME280;35951;47.848;-122.338;2022-07-29T11:55:15;101083.38;;;17.68;100.00
50065;BME280;35951;47.848;-122.338;2022-07-29T12:00:27;101083.73;;;17.73;100.00
50065;BME280;35951;47.848;-122.338;2022-07-29T12:03:02;101084.63;;;17.74;100.00
50065;BME280;35951;47.848;-122.338;2022-07-29T12:05:46;101082.02;;;17.72;100.00
50065;BME280;35951;47.848;-122.338;2022-07-29T12:08:11;101086.44;;;17.69;100.00
50065;BME280;35951;47.848;-122.338;2022-07-29T12:10:42;101090.86;;;17.65;100.00
50065;BME280;35951;47.848;-122.338;2022-07-29T12:13:11;101083.00;;;17.62;100.00
50065;BME280;35951;47.848;-122.338;2022-07-29T12:15:39;101086.55;;;17.59;100.00
50065;BME280;35951;47.848;-122.338;2022-07-29T12:18:14;101090.05;;;17.58;100.00
50065;BME280;35951;47.848;-122.338;2022-07-29T12:20:39;101090.07;;;17.55;100.00
50065;BME280;35951;47.848;-122.338;2022-07-29T12:23:07;101090.98;;;17.54;100.00
50065;BME280;35951;47.848;-122.338;2022-07-29T12:25:34;101086.19;;;17.52;100.00
50065;BME280;35951;47.848;-122.338;2022-07-29T12:28:04;101093.17;;;17.52;100.00
50065;BME280;35951;47.848;-122.338;2022-07-29T12:30:39;101090.59;;;17.50;100.00
50065;BME280;35951;47.848;-122.338;2022-07-29T12:33:24;101092.79;;;17.48;100.00
50065;BME280;35951;47.848;-122.338;2022-07-29T12:35:53;101087.13;;;17.46;100.00
50065;BME280;35951;47.848;-122.338;2022-07-29T12:38:23;101088.91;;;17.44;100.00
50065;BME280;35951;47.848;-122.338;2022-07-29T12:40:51;101084.52;;;17.45;100.00
50065;BME280;35951;47.848;-122.338;2022-07-29T12:43:23;101084.08;;;17.42;100.00
50065;BME280;35951;47.848;-122.338;2022-07-29T12:45:51;101086.75;;;17.41;100.00
50065;BME280;35951;47.848;-122.338;2022-07-29T12:48:41;101095.95;;;17.39;100.00
50065;BME280;35951;47.848;-122.338;2022-07-29T12:51:04;101088.48;;;17.40;100.00
50065;BME280;35951;47.848;-122.338;2022-07-29T12:53:32;101089.34;;;17.42;100.00
50065;BME280;35951;47.848;-122.338;2022-07-29T12:55:59;101082.38;;;17.40;100.00
50065;BME280;35951;47.848;-122.338;2022-07-29T12:58:30;101082.38;;;17.40;100.00
50065;BME280;35951;47.848;-122.338;2022-07-29T13:03:44;101085.03;;;17.35;100.00
50065;BME280;35951;47.848;-122.338;2022-07-29T13:06:31;101088.12;;;17.33;100.00
50065;BME280;35951;47.848;-122.338;2022-07-29T13:09:11;101084.18;;;17.33;100.00
50065;BME280;35951;47.848;-122.338;2022-07-29T13:11:49;101081.55;;;17.33;100.00
50065;BME280;35951;47.848;-122.338;2022-07-29T13:14:34;101082.00;;;17.34;100.00
50065;BME280;35951;47.848;-122.338;2022-07-29T13:17:00;101091.64;;;17.34;100.00
50065;BME280;35951;47.848;-122.338;2022-07-29T13:22:11;101102.55;;;17.36;100.00
50065;BME280;35951;47.848;-122.338;2022-07-29T13:24:47;101099.92;;;17.35;100.00
50065;BME280;35951;47.848;-122.338;2022-07-29T13:27:21;101097.73;;;17.37;100.00
50065;BME280;35951;47.848;-122.338;2022-07-29T13:29:45;101099.06;;;17.34;100.00
50065;BME280;35951;47.848;-122.338;2022-07-29T13:32:13;101099.09;;;17.31;100.00